Time;durP1;ratioP1;P1;durP2;ratioP2;P2;SDS_P1;SDS_P2;PMS_P1;PMS_P2;Temp;Humidity;BMP_temperature;BMP_pressure;BME280_temperature;BME280_humidity;BME280_pressure;Samples;Min_cycle;Max_cycle;Signal;HPM_P1;HPM_P2
2024/02/01 05:19:08;;;;;;;;;;;;;;;;;;;;;
2024/02/01 11:22:26;;;;;;;;;;;;;;;;;;;;;
2024/02/01 19:47:39;;;;;;;33.70;22.40;;;;;;;19.99;21.75;100981.45;109636;1259;71231;-88
2024/02/01 19:50:06;;;;;;;26.80;21.20;;;;;;;19.98;21.78;100979.35;109613;1260;67624;-89
2024/02/01 19:52:32;;;;;;;27.10;20.90;;;;;;;19.99;21.77;100985.04;109650;1260;67691;-88
2024/02/01 19:54:58;;;;;;;27.20;20.90;;;;;;;19.99;21.87;100985.34;109691;1259;67510;-88
2024/02/01 19:57:24;;;;;;;26.20;20.80;;;;;;;19.99;21.80;100985.75;109626;1260;67553;-89
2024/02/01 19:59:50;;;;;;;31.70;22.00;;;;;;;19.99;21.83;100983.85;109663;1259;67582;-88
2024/02/01 20:02:16;;;;;;;35.80;23.60;;;;;;;19.99;21.78;100983.76;109736;1259;66884;-89
2024/02/01 20:04:42;;;;;;;46.60;30.20;;;;;;;19.98;21.82;100986.91;109741;1259;66791;-88
2024/02/01 20:07:07;;;;;;;43.40;27.80;;;;;;;19.98;21.80;100991.06;109567;1259;83743;-88
2024/02/01 20:09:33;;;;;;;40.50;29.00;;;;;;;19.97;21.92;100997.34;109602;1260;67549;-88
2024/02/01 20:14:38;;;;;;;38.80;28.10;;;;;;;19.96;21.87;100995.38;109648;1260;67493;-88
2024/02/01 20:17:04;;;;;;;39.60;27.10;;;;;;;19.96;21.87;100988.52;109749;1259;67623;-88
2024/02/01 20:19:31;;;;;;;41.90;28.30;;;;;;;19.96;21.73;100982.10;109554;1260;67482;-88
2024/02/01 20:22:04;;;;;;;37.60;26.70;;;;;;;19.95;21.71;100978.52;109457;1260;66929;-88
2024/02/01 20:24:30;;;;;;;34.90;26.40;;;;;;;19.94;21.95;100985.95;109718;1260;67461;-88
2024/02/01 20:27:14;;;;;;;35.80;26.60;;;;;;;19.94;21.96;100995.20;109473;1260;67630;-92
2024/02/01 20:29:40;;;;;;;35.60;25.30;;;;;;;19.93;21.87;101001.46;109710;1260;75096;-88
2024/02/01 20:32:10;;;;;;;33.90;25.20;;;;;;;19.92;21.90;100999.91;109464;1260;67475;-88
2024/02/01 20:34:38;;;;;;;36.60;25.90;;;;;;;19.91;21.87;101010.31;109506;1260;72166;-88
2024/02/01 20:39:48;;;;;;;28.60;23.60;;;;;;;19.90;21.93;101015.91;109597;1263;67633;-88
2024/02/01 20:42:22;;;;;;;36.40;26.10;;;;;;;19.89;21.87;101007.63;109651;1260;67481;-88
2024/02/01 20:47:33;;;;;;;31.00;24.90;;;;;;;19.87;21.88;101006.20;109565;1261;73714;-87
2024/02/01 20:49:59;;;;;;;35.60;25.80;;;;;;;19.86;21.86;101004.81;109578;1263;67568;-88
2024/02/01 20:52:29;;;;;;;34.20;24.90;;;;;;;19.85;21.86;101001.18;109689;1261;66871;-87
2024/02/01 20:55:17;;;;;;;33.40;25.20;;;;;;;19.85;21.93;101002.55;109478;1260;75711;-87
2024/02/01 20:57:44;;;;;;;31.50;24.10;;;;;;;19.82;21.91;101007.17;109577;1260;82791;-87
2024/02/01 21:00:19;;;;;;;33.50;23.50;;;;;;;19.81;22.01;101011.05;109437;1261;72221;-87
2024/02/01 21:05:38;;;;;;;32.60;23.80;;;;;;;19.80;22.03;101012.60;109530;1262;66945;-89
2024/02/01 21:10:47;;;;;;;31.30;24.00;;;;;;;19.78;22.01;101006.60;109595;1260;82738;-89
2024/02/01 21:13:14;;;;;;;32.40;23.60;;;;;;;19.78;22.06;101008.22;109497;1260;72414;-89
2024/02/01 21:15:40;;;;;;;33.20;23.30;;;;;;;19.77;21.93;101004.48;109588;1260;67282;-89
2024/02/01 21:18:17;;;;;;;29.60;24.50;;;;;;;19.77;22.00;101008.20;109339;1260;67646;-89
2024/02/01 21:20:57;;;;;;;35.10;26.40;;;;;;;19.76;21.97;101001.92;109502;1260;75582;-92
2024/02/01 21:32:34;;;;;;;32.00;24.20;;;;;;;19.71;21.96;100991.86;109786;1258;67393;-89
2024/02/01 21:35:04;;;;;;;32.30;25.10;;;;;;;19.71;22.01;100992.52;109821;1257;74892;-89
2024/02/01 21:37:34;;;;;;;32.10;25.00;;;;;;;19.70;22.07;100988.52;109687;1257;82783;-89
2024/02/01 21:40:03;;;;;;;32.50;24.50;;;;;;;19.70;21.98;100988.94;109793;1257;72261;-89
2024/02/01 21:45:09;;;;;;;;;;;;;;;19.70;21.94;100986.21;109700;1260;67908;-89
2024/02/01 21:53:11;;;;;;;29.20;23.90;;;;;;;19.66;21.95;101014.25;109805;1257;72976;-88
2024/02/01 21:55:38;;;;;;;28.60;22.80;;;;;;;19.67;21.99;101015.02;109744;1261;67533;-89
2024/02/01 21:58:05;;;;;;;29.80;23.90;;;;;;;19.68;21.99;101014.23;109840;1257;67486;-89
2024/02/01 22:00:32;;;;;;;30.90;23.50;;;;;;;19.68;21.96;101004.06;109772;1257;74937;-89
2024/02/01 22:02:59;;;;;;;29.00;23.30;;;;;;;19.68;21.86;101005.80;109786;1257;83080;-89
2024/02/01 22:05:25;;;;;;;27.30;23.30;;;;;;;19.69;21.95;101011.63;109750;1257;72441;-89
2024/02/01 22:07:51;;;;;;;27.90;23.10;;;;;;;19.69;21.89;101016.74;109833;1257;67464;-89
2024/02/01 22:10:17;;;;;;;26.10;23.00;;;;;;;19.70;22.00;101019.20;109785;1257;67628;-89
2024/02/01 22:12:43;;;;;;;27.10;22.40;;;;;;;19.70;21.96;101015.17;109783;1257;67218;-89
2024/02/01 22:15:09;;;;;;;27.10;22.40;;;;;;;19.70;21.94;101011.23;109796;1257;67466;-89
2024/02/01 22:20:24;;;;;;;30.90;25.00;;;;;;;19.70;21.87;101005.94;109745;1257;67605;-88
2024/02/01 22:22:50;;;;;;;27.10;23.90;;;;;;;19.71;21.84;101006.86;109751;1257;67629;-88
2024/02/01 22:25:16;;;;;;;29.90;24.70;;;;;;;19.71;21.99;101011.67;109827;1257;66882;-88
2024/02/01 22:27:43;;;;;;;31.80;24.50;;;;;;;19.71;21.85;101013.35;109806;1257;67509;-88
2024/02/01 22:30:11;;;;;;;29.20;23.60;;;;;;;19.72;21.79;101012.70;109735;1257;71521;-88
2024/02/01 22:32:40;;;;;;;30.70;23.80;;;;;;;19.71;21.73;101012.94;109735;1257;67397;-92
2024/02/01 22:35:06;;;;;;;30.00;23.60;;;;;;;19.72;21.88;101017.09;109690;1257;67437;-88
2024/02/01 22:40:15;;;;;;;30.60;24.20;;;;;;;19.72;21.80;101011.71;109727;1261;84035;-88
2024/02/01 22:42:41;;;;;;;28.30;23.80;;;;;;;19.72;21.76;101009.95;109455;1260;72328;-88
2024/02/01 22:50:54;;;;;;;28.70;23.90;;;;;;;19.72;21.63;100996.31;109717;1261;74700;-88
2024/02/01 22:56:08;;;;;;;29.50;24.10;;;;;;;19.72;21.68;100984.58;109705;1259;72273;-87
2024/02/01 22:58:35;;;;;;;30.10;24.40;;;;;;;19.73;21.76;100985.70;109550;1259;66916;-89
2024/02/01 23:01:03;;;;;;;30.10;24.30;;;;;;;19.73;21.79;100987.55;109527;1260;66853;-89
2024/02/01 23:03:29;;;;;;;28.70;24.20;;;;;;;19.74;21.74;100986.63;109675;1259;67452;-89
2024/02/01 23:05:57;;;;;;;29.90;25.00;;;;;;;19.74;21.76;100991.33;109726;1259;82589;-89
2024/02/01 23:11:14;;;;;;;28.60;24.50;;;;;;;19.75;21.73;100996.23;109805;1257;67638;-88
2024/02/01 23:13:39;;;;;;;29.00;24.70;;;;;;;19.76;21.69;101000.70;109792;1257;67601;-88
2024/02/01 23:16:06;;;;;;;28.50;23.70;;;;;;;19.77;21.71;100995.91;109809;1257;67391;-88
2024/02/01 23:18:33;;;;;;;30.80;25.00;;;;;;;19.77;21.71;101000.55;109844;1257;67463;-88
2024/02/01 23:20:59;;;;;;;31.00;24.60;;;;;;;19.78;21.71;100999.14;109775;1257;66999;-88
2024/02/01 23:23:27;;;;;;;29.90;24.00;;;;;;;19.78;21.75;100997.83;109799;1257;66884;-92
2024/02/01 23:25:54;;;;;;;28.20;24.00;;;;;;;19.79;21.60;100996.19;109778;1257;67349;-88
2024/02/01 23:28:19;;;;;;;28.20;24.40;;;;;;;19.80;21.65;101002.34;109768;1257;67444;-88
2024/02/01 23:30:47;;;;;;;28.50;24.10;;;;;;;19.80;21.65;101011.27;109761;1257;67120;-88
2024/02/01 23:33:15;;;;;;;30.40;24.60;;;;;;;19.81;21.59;101007.77;109884;1257;72479;-88
2024/02/01 23:35:41;;;;;;;27.80;24.20;;;;;;;19.82;21.61;101006.60;109838;1257;67341;-88
2024/02/01 23:38:07;;;;;;;28.10;23.40;;;;;;;19.83;21.39;101011.52;109729;1257;66805;-88
2024/02/01 23:40:33;;;;;;;28.10;23.50;;;;;;;19.83;21.54;101008.31;109805;1257;67637;-88
2024/02/01 23:42:59;;;;;;;28.90;23.50;;;;;;;19.84;21.50;101001.67;109792;1257;67555;-88
2024/02/01 23:45:25;;;;;;;29.30;22.80;;;;;;;19.86;21.62;101002.98;109739;1257;67343;-87
2024/02/01 23:47:51;;;;;;;25.40;22.70;;;;;;;19.86;21.65;101001.49;109830;1257;67669;-87
2024/02/01 23:50:25;;;;;;;29.80;22.70;;;;;;;19.87;21.48;101004.73;109863;1257;75229;-91
2024/02/01 23:52:51;;;;;;;28.40;22.60;;;;;;;19.88;21.45;100997.34;109690;1259;82817;-88
2024/02/01 23:55:16;;;;;;;25.70;22.80;;;;;;;19.88;21.51;100996.98;109641;1259;66996;-87
2024/02/01 23:57:42;;;;;;;24.80;22.10;;;;;;;19.89;21.41;101002.13;109790;1260;67408;-88
